sensor_id;sensor_type;location;lat;lon;timestamp;pressure;altitude;pressure_sealevel;temperature;humidity
75936;BME280;64614;32.062;34.834;2023-05-10T00:01:24;100769.84;;;25.43;53.03
75936;BME280;64614;32.062;34.834;2023-05-10T00:03:49;100773.41;;;25.43;53.11
75936;BME280;64614;32.062;34.834;2023-05-10T00:06:15;100778.09;;;25.43;52.89
75936;BME280;64614;32.062;34.834;2023-05-10T00:08:41;100781.66;;;25.43;52.92
75936;BME280;64614;32.062;34.834;2023-05-10T00:11:06;100780.03;;;25.42;53.25
75936;BME280;64614;32.062;34.834;2023-05-10T00:13:32;100785.53;;;25.42;52.81
75936;BME280;64614;32.062;34.834;2023-05-10T00:15:58;100789.09;;;25.43;52.98
75936;BME280;64614;32.062;34.834;2023-05-10T00:18:24;100784.72;;;25.42;52.88
75936;BME280;64614;32.062;34.834;2023-05-10T00:20:49;100780.38;;;25.41;52.63
75936;BME280;64614;32.062;34.834;2023-05-10T00:23:15;100779.22;;;25.42;52.99
75936;BME280;64614;32.062;34.834;2023-05-10T00:25:41;100780.38;;;25.41;52.95
75936;BME280;64614;32.062;34.834;2023-05-10T00:28:06;100783.13;;;25.41;53.15
75936;BME280;64614;32.062;34.834;2023-05-10T00:30:32;100783.13;;;25.41;53.03
75936;BME280;64614;32.062;34.834;2023-05-10T00:32:58;100772.91;;;25.41;53.11
75936;BME280;64614;32.062;34.834;2023-05-10T00:35:23;100769.38;;;25.41;53.19
75936;BME280;64614;32.062;34.834;2023-05-10T00:37:49;100768.84;;;25.39;52.84
75936;BME280;64614;32.062;34.834;2023-05-10T00:40:15;100769.69;;;25.39;52.99
75936;BME280;64614;32.062;34.834;2023-05-10T00:42:41;100769.69;;;25.39;53.13
75936;BME280;64614;32.062;34.834;2023-05-10T00:45:06;100760.59;;;25.39;52.88
75936;BME280;64614;32.062;34.834;2023-05-10T00:47:33;100766.09;;;25.39;53.04
75936;BME280;64614;32.062;34.834;2023-05-10T00:49:59;100768.84;;;25.39;53.25
75936;BME280;64614;32.062;34.834;2023-05-10T00:52:27;100768.06;;;25.38;52.95
75936;BME280;64614;32.062;34.834;2023-05-10T00:54:54;100766.44;;;25.37;52.99
75936;BME280;64614;32.062;34.834;2023-05-10T00:57:20;100762.88;;;25.37;53.07
75936;BME280;64614;32.062;34.834;2023-05-10T00:59:46;100762.88;;;25.37;52.84
75936;BME280;64614;32.062;34.834;2023-05-10T01:02:12;100750.75;;;25.38;53.11
75936;BME280;64614;32.062;34.834;2023-05-10T01:04:38;100747.50;;;25.35;53.09
75936;BME280;64614;32.062;34.834;2023-05-10T01:07:04;100759.00;;;25.38;53.15
75936;BME280;64614;32.062;34.834;2023-05-10T01:09:30;100757.38;;;25.37;53.10
75936;BME280;64614;32.062;34.834;2023-05-10T01:11:57;100758.50;;;25.35;53.06
75936;BME280;64614;32.062;34.834;2023-05-10T01:14:24;100756.25;;;25.38;53.31
75936;BME280;64614;32.062;34.834;2023-05-10T01:16:52;100756.25;;;25.38;53.42
75936;BME280;64614;32.062;34.834;2023-05-10T01:19:29;100756.25;;;25.38;52.99
75936;BME280;64614;32.062;34.834;2023-05-10T01:22:32;100742.00;;;25.35;53.39
75936;BME280;64614;32.062;34.834;2023-05-10T01:33:57;100745.59;;;25.36;53.12
75936;BME280;64614;32.062;34.834;2023-05-10T01:36:58;100740.09;;;25.36;53.17
75936;BME280;64614;32.062;34.834;2023-05-10T01:42:16;100729.41;;;25.34;53.14
75936;BME280;64614;32.062;34.834;2023-05-10T01:47:39;100716.00;;;25.33;53.02
75936;BME280;64614;32.062;34.834;2023-05-10T01:50:19;100725.84;;;25.34;53.17
75936;BME280;64614;32.062;34.834;2023-05-10T01:52:58;100727.00;;;25.33;53.21
75936;BME280;64614;32.062;34.834;2023-05-10T01:55:28;100727.00;;;25.33;53.23
75936;BME280;64614;32.062;34.834;2023-05-10T01:58:15;100729.75;;;25.33;53.12
75936;BME280;64614;32.062;34.834;2023-05-10T02:00:43;100723.75;;;25.31;53.16
75936;BME280;64614;32.062;34.834;2023-05-10T02:03:10;100733.94;;;25.30;53.47
75936;BME280;64614;32.062;34.834;2023-05-10T02:05:37;100733.94;;;25.30;53.16
75936;BME280;64614;32.062;34.834;2023-05-10T02:08:06;100726.84;;;25.29;53.31
75936;BME280;64614;32.062;34.834;2023-05-10T02:10:34;100726.84;;;25.29;53.01
75936;BME280;64614;32.062;34.834;2023-05-10T02:13:00;100733.47;;;25.28;53.17
75936;BME280;64614;32.062;34.834;2023-05-10T02:15:27;100725.22;;;25.28;53.27
75936;BME280;64614;32.062;34.834;2023-05-10T02:17:59;100727.97;;;25.28;53.18
75936;BME280;64614;32.062;34.834;2023-05-10T02:20:26;100731.84;;;25.27;53.17
75936;BME280;64614;32.062;34.834;2023-05-10T02:22:54;100731.06;;;25.27;53.42
75936;BME280;64614;32.062;34.834;2023-05-10T02:25:22;100729.94;;;25.28;53.21
75936;BME280;64614;32.062;34.834;2023-05-10T02:27:48;100730.25;;;25.26;53.59
75936;BME280;64614;32.062;34.834;2023-05-10T02:30:16;100737.34;;;25.27;53.41
75936;BME280;64614;32.062;34.834;2023-05-10T02:32:44;100736.06;;;25.25;53.30
75936;BME280;64614;32.062;34.834;2023-05-10T02:35:10;100735.28;;;25.24;53.50
75936;BME280;64614;32.062;34.834;2023-05-10T02:37:39;100738.03;;;25.24;53.46
75936;BME280;64614;32.062;34.834;2023-05-10T02:40:07;100731.69;;;25.24;53.49
75936;BME280;64614;32.062;34.834;2023-05-10T02:42:36;100733.66;;;25.23;53.18
75936;BME280;64614;32.062;34.834;2023-05-10T02:45:08;100732.84;;;25.23;53.22
75936;BME280;64614;32.062;34.834;2023-05-10T02:47:36;100737.53;;;25.22;53.52
75936;BME280;64614;32.062;34.834;2023-05-10T02:50:02;100732.03;;;25.22;53.33
75936;BME280;64614;32.062;34.834;2023-05-10T02:52:30;100740.28;;;25.22;53.44
75936;BME280;64614;32.062;34.834;2023-05-10T02:55:04;100735.13;;;25.21;53.33
75936;BME280;64614;32.062;34.834;2023-05-10T02:57:33;100740.28;;;25.22;53.20
75936;BME280;64614;32.062;34.834;2023-05-10T03:00:00;100748.53;;;25.22;53.53
75936;BME280;64614;32.062;34.834;2023-05-10T03:02:26;100743.03;;;25.22;53.50
75936;BME280;64614;32.062;34.834;2023-05-10T03:04:52;100757.91;;;25.21;53.46
75936;BME280;64614;32.062;34.834;2023-05-10T03:07:18;100747.72;;;25.22;53.55
75936;BME280;64614;32.062;34.834;2023-05-10T03:09:47;100738.19;;;25.19;53.26
75936;BME280;64614;32.062;34.834;2023-05-10T03:12:23;100738.19;;;25.19;53.39
75936;BME280;64614;32.062;34.834;2023-05-10T03:17:36;100756.28;;;25.20;53.50
75936;BME280;64614;32.062;34.834;2023-05-10T03:20:15;100753.53;;;25.20;53.43
75936;BME280;64614;32.062;34.834;2023-05-10T03:22:47;100759.38;;;25.18;53.53
75936;BME280;64614;32.062;34.834;2023-05-10T03:25:15;100751.44;;;25.17;53.57
75936;BME280;64614;32.062;34.834;2023-05-10T03:27:43;100752.25;;;25.17;53.61
75936;BME280;64614;32.062;34.834;2023-05-10T03:30:12;100738.03;;;25.15;53.52
75936;BME280;64614;32.062;34.834;2023-05-10T03:32:39;100742.75;;;25.15;53.53
75936;BME280;64614;32.062;34.834;2023-05-10T03:35:08;100730.13;;;25.14;53.55
75936;BME280;64614;32.062;34.834;2023-05-10T03:37:34;100741.91;;;25.14;53.36
75936;BME280;64614;32.062;34.834;2023-05-10T03:40:01;100742.75;;;25.15;53.41
75936;BME280;64614;32.062;34.834;2023-05-10T03:42:26;100743.88;;;25.14;53.59
75936;BME280;64614;32.062;34.834;2023-05-10T03:44:52;100743.38;;;25.12;53.54
75936;BME280;64614;32.062;34.834;2023-05-10T03:47:17;100740.16;;;25.10;53.57
75936;BME280;64614;32.062;34.834;2023-05-10T03:49:43;100748.72;;;25.08;53.34
75936;BME280;64614;32.062;34.834;2023-05-10T03:52:08;100745.50;;;25.06;53.36
75936;BME280;64614;32.062;34.834;2023-05-10T03:54:34;100742.09;;;25.00;53.18
75936;BME280;64614;32.062;34.834;2023-05-10T03:57:00;100749.06;;;24.98;53.25
75936;BME280;64614;32.062;34.834;2023-05-10T03:59:26;100745.03;;;24.95;53.09
75936;BME280;64614;32.062;34.834;2023-05-10T04:01:52;100752.00;;;24.93;53.13
75936;BME280;64614;32.062;34.834;2023-05-10T04:04:17;100745.22;;;24.90;53.17
75936;BME280;64614;32.062;34.834;2023-05-10T04:06:44;100749.41;;;24.87;53.19
75936;BME280;64614;32.062;34.834;2023-05-10T04:09:10;100743.91;;;24.87;52.86
75936;BME280;64614;32.062;34.834;2023-05-10T04:11:36;100745.38;;;24.85;53.09
75936;BME280;64614;32.062;34.834;2023-05-10T04:14:01;100746.00;;;24.82;52.93
75936;BME280;64614;32.062;34.834;2023-05-10T04:16:27;100743.09;;;24.78;52.92
75936;BME280;64614;32.062;34.834;2023-05-10T04:18:53;100744.56;;;24.76;52.62
75936;BME280;64614;32.062;34.834;2023-05-10T04:21:19;100743.91;;;24.70;52.64
75936;BME280;64614;32.062;34.834;2023-05-10T04:23:44;100746.22;;;24.68;52.73
75936;BME280;64614;32.062;34.834;2023-05-10T04:26:10;100751.03;;;24.62;52.54
75936;BME280;64614;32.062;34.834;2023-05-10T04:28:36;100750.53;;;24.60;52.67
75936;BME280;64614;32.062;34.834;2023-05-10T04:31:08;100754.75;;;24.58;52.54
75936;BME280;64614;32.062;34.834;2023-05-10T04:33:34;100738.56;;;24.56;52.49
75936;BME280;64614;32.062;34.834;2023-05-10T04:36:01;100750.22;;;24.53;52.61
75936;BME280;64614;32.062;34.834;2023-05-10T04:38:27;100748.59;;;24.52;52.59
75936;BME280;64614;32.062;34.834;2023-05-10T04:40:53;100738.25;;;24.49;52.48
75936;BME280;64614;32.062;34.834;2023-05-10T04:43:19;100741.00;;;24.49;52.55
75936;BME280;64614;32.062;34.834;2023-05-10T04:45:46;100750.84;;;24.50;52.46
75936;BME280;64614;32.062;34.834;2023-05-10T04:48:11;100742.63;;;24.50;52.52
75936;BME280;64614;32.062;34.834;2023-05-10T04:50:37;100747.78;;;24.51;52.71
75936;BME280;64614;32.062;34.834;2023-05-10T04:53:04;100754.56;;;24.54;52.41
75936;BME280;64614;32.062;34.834;2023-05-10T04:55:30;100754.25;;;24.55;52.58
75936;BME280;64614;32.062;34.834;2023-05-10T04:57:55;100745.69;;;24.57;52.32
75936;BME280;64614;32.062;34.834;2023-05-10T05:00:23;100745.69;;;24.57;52.38
75936;BME280;64614;32.062;34.834;2023-05-10T05:02:49;100754.91;;;24.61;52.23
75936;BME280;64614;32.062;34.834;2023-05-10T05:05:14;100760.88;;;24.63;52.34
75936;BME280;64614;32.062;34.834;2023-05-10T05:07:40;100741.31;;;24.65;52.39
75936;BME280;64614;32.062;34.834;2023-05-10T05:10:07;100749.22;;;24.66;52.39
75936;BME280;64614;32.062;34.834;2023-05-10T05:12:34;100761.22;;;24.70;52.38
75936;BME280;64614;32.062;34.834;2023-05-10T05:15:00;100756.53;;;24.71;52.31
75936;BME280;64614;32.062;34.834;2023-05-10T05:17:26;100755.56;;;24.76;52.32
75936;BME280;64614;32.062;34.834;2023-05-10T05:19:52;100765.41;;;24.77;52.29
75936;BME280;64614;32.062;34.834;2023-05-10T05:22:17;100766.69;;;24.79;52.32
75936;BME280;64614;32.062;34.834;2023-05-10T05:24:44;100756.53;;;24.80;52.24
75936;BME280;64614;32.062;34.834;2023-05-10T05:27:11;100762.50;;;24.82;52.15
75936;BME280;64614;32.062;34.834;2023-05-10T05:29:36;100755.56;;;24.84;52.28
75936;BME280;64614;32.062;34.834;2023-05-10T05:32:02;100747.00;;;24.86;52.23
75936;BME280;64614;32.062;34.834;2023-05-10T05:34:28;100743.91;;;24.87;52.22
75936;BME280;64614;32.062;34.834;2023-05-10T05:36:53;100746.50;;;24.93;52.19
75936;BME280;64614;32.062;34.834;2023-05-10T05:39:19;100734.03;;;24.95;52.04
75936;BME280;64614;32.062;34.834;2023-05-10T05:41:45;100731.13;;;25.00;52.28
75936;BME280;64614;32.062;34.834;2023-05-10T05:44:11;100734.00;;;25.04;52.40
75936;BME280;64614;32.062;34.834;2023-05-10T05:46:37;100735.00;;;25.08;52.16
75936;BME280;64614;32.062;34.834;2023-05-10T05:49:02;100730.78;;;25.11;52.14
75936;BME280;64614;32.062;34.834;2023-05-10T05:51:28;100730.91;;;25.14;52.20
75936;BME280;64614;32.062;34.834;2023-05-10T05:53:54;100733.66;;;25.14;52.24
75936;BME280;64614;32.062;34.834;2023-05-10T05:56:19;100738.19;;;25.19;52.15
75936;BME280;64614;32.062;34.834;2023-05-10T05:58:50;100739.16;;;25.23;52.20
75936;BME280;64614;32.062;34.834;2023-05-10T06:01:16;100736.91;;;25.25;52.13
75936;BME280;64614;32.062;34.834;2023-05-10T06:03:41;100730.72;;;25.28;52.30
75936;BME280;64614;32.062;34.834;2023-05-10T06:06:07;100742.69;;;25.32;51.90
75936;BME280;64614;32.062;34.834;2023-05-10T06:08:33;100742.84;;;25.36;51.93
75936;BME280;64614;32.062;34.834;2023-05-10T06:11:00;100741.38;;;25.39;51.85
75936;BME280;64614;32.062;34.834;2023-05-10T06:13:25;100741.53;;;25.42;52.05
75936;BME280;64614;32.062;34.834;2023-05-10T06:16:00;100748.31;;;25.45;52.01
75936;BME280;64614;32.062;34.834;2023-05-10T06:18:25;100732.31;;;25.47;51.85
75936;BME280;64614;32.062;34.834;2023-05-10T06:20:51;100733.28;;;25.51;51.83
75936;BME280;64614;32.062;34.834;2023-05-10T06:23:17;100729.84;;;25.54;51.80
75936;BME280;64614;32.062;34.834;2023-05-10T06:25:42;100735.81;;;25.56;52.03
75936;BME280;64614;32.062;34.834;2023-05-10T06:28:08;100724.16;;;25.59;52.00
75936;BME280;64614;32.062;34.834;2023-05-10T06:30:36;100735.31;;;25.63;52.16
75936;BME280;64614;32.062;34.834;2023-05-10T06:33:02;100727.53;;;25.65;51.93
75936;BME280;64614;32.062;34.834;2023-05-10T06:35:28;100725.59;;;25.65;51.76
75936;BME280;64614;32.062;34.834;2023-05-10T06:37:54;100732.38;;;25.68;51.76
75936;BME280;64614;32.062;34.834;2023-05-10T06:40:21;100730.44;;;25.69;51.89
75936;BME280;64614;32.062;34.834;2023-05-10T06:42:47;100720.38;;;25.73;51.79
75936;BME280;64614;32.062;34.834;2023-05-10T06:45:14;100727.16;;;25.75;51.88
75936;BME280;64614;32.062;34.834;2023-05-10T06:47:40;100730.53;;;25.81;51.45
75936;BME280;64614;32.062;34.834;2023-05-10T06:50:09;100722.75;;;25.83;51.79
75936;BME280;64614;32.062;34.834;2023-05-10T06:52:37;100722.75;;;25.83;51.62
75936;BME280;64614;32.062;34.834;2023-05-10T06:55:03;100714.16;;;25.85;51.43
75936;BME280;64614;32.062;34.834;2023-05-10T06:57:29;100714.97;;;25.85;51.18
75936;BME280;64614;32.062;34.834;2023-05-10T06:59:55;100723.13;;;25.73;51.93
75936;BME280;64614;32.062;34.834;2023-05-10T07:02:23;100720.03;;;25.74;51.92
75936;BME280;64614;32.062;34.834;2023-05-10T07:04:49;100713.72;;;25.74;51.61
75936;BME280;64614;32.062;34.834;2023-05-10T07:07:15;100710.50;;;25.72;51.95
75936;BME280;64614;32.062;34.834;2023-05-10T07:09:40;100714.88;;;25.73;51.73
75936;BME280;64614;32.062;34.834;2023-05-10T07:12:06;100722.00;;;25.74;51.65
75936;BME280;64614;32.062;34.834;2023-05-10T07:14:32;100706.63;;;25.73;51.43
75936;BME280;64614;32.062;34.834;2023-05-10T07:16:57;100707.75;;;25.72;51.66
75936;BME280;64614;32.062;34.834;2023-05-10T07:19:23;100710.50;;;25.72;51.55
75936;BME280;64614;32.062;34.834;2023-05-10T07:21:49;100716.00;;;25.72;51.28
75936;BME280;64614;32.062;34.834;2023-05-10T07:24:15;100720.72;;;25.71;51.21
75936;BME280;64614;32.062;34.834;2023-05-10T07:26:41;100710.84;;;25.70;51.15
75936;BME280;64614;32.062;34.834;2023-05-10T07:29:06;100708.09;;;25.70;51.41
75936;BME280;64614;32.062;34.834;2023-05-10T07:31:32;100711.19;;;25.69;51.54
75936;BME280;64614;32.062;34.834;2023-05-10T07:33:57;100717.13;;;25.71;51.47
75936;BME280;64614;32.062;34.834;2023-05-10T07:36:23;100704.88;;;25.68;51.08
75936;BME280;64614;32.062;34.834;2023-05-10T07:38:49;100709.56;;;25.68;51.36
75936;BME280;64614;32.062;34.834;2023-05-10T07:41:15;100706.81;;;25.68;51.20
75936;BME280;64614;32.062;34.834;2023-05-10T07:43:40;100702.47;;;25.67;50.80
75936;BME280;64614;32.062;34.834;2023-05-10T07:46:06;100718.63;;;25.68;51.30
75936;BME280;64614;32.062;34.834;2023-05-10T07:48:32;100708.75;;;25.67;51.14
75936;BME280;64614;32.062;34.834;2023-05-10T07:50:57;100713.44;;;25.67;50.93
75936;BME280;64614;32.062;34.834;2023-05-10T07:53:23;100718.97;;;25.67;51.31
75936;BME280;64614;32.062;34.834;2023-05-10T07:55:54;100709.56;;;25.68;51.08
75936;BME280;64614;32.062;34.834;2023-05-10T07:58:23;100702.78;;;25.65;51.37
75936;BME280;64614;32.062;34.834;2023-05-10T08:00:48;100711.84;;;25.65;51.24
75936;BME280;64614;32.062;34.834;2023-05-10T08:03:14;100704.72;;;25.64;51.07
75936;BME280;64614;32.062;34.834;2023-05-10T08:05:40;100707.94;;;25.67;50.99
75936;BME280;64614;32.062;34.834;2023-05-10T08:08:06;100700.34;;;25.63;50.85
75936;BME280;64614;32.062;34.834;2023-05-10T08:10:32;100704.72;;;25.64;50.92
75936;BME280;64614;32.062;34.834;2023-05-10T08:12:57;100700.34;;;25.63;51.07
75936;BME280;64614;32.062;34.834;2023-05-10T08:15:24;100695.69;;;25.64;51.23
75936;BME280;64614;32.062;34.834;2023-05-10T08:17:51;100699.56;;;25.63;50.92
75936;BME280;64614;32.062;34.834;2023-05-10T08:20:17;100697.94;;;25.62;50.78
75936;BME280;64614;32.062;34.834;2023-05-10T08:22:47;100697.59;;;25.63;50.80
75936;BME280;64614;32.062;34.834;2023-05-10T08:25:12;100691.31;;;25.63;50.67
75936;BME280;64614;32.062;34.834;2023-05-10T08:27:38;100686.94;;;25.62;51.28
75936;BME280;64614;32.062;34.834;2023-05-10T08:30:04;100698.28;;;25.60;50.95
75936;BME280;64614;32.062;34.834;2023-05-10T08:32:30;100688.22;;;25.64;50.80
75936;BME280;64614;32.062;34.834;2023-05-10T08:34:56;100683.38;;;25.61;50.89
75936;BME280;64614;32.062;34.834;2023-05-10T08:37:23;100674.00;;;25.62;50.79
75936;BME280;64614;32.062;34.834;2023-05-10T08:39:49;100681.09;;;25.63;50.94
75936;BME280;64614;32.062;34.834;2023-05-10T08:42:19;100678.34;;;25.63;50.77
75936;BME280;64614;32.062;34.834;2023-05-10T08:44:48;100678.34;;;25.63;51.11
75936;BME280;64614;32.062;34.834;2023-05-10T08:47:16;100690.19;;;25.64;50.74
75936;BME280;64614;32.062;34.834;2023-05-10T08:49:44;100687.44;;;25.64;50.70
75936;BME280;64614;32.062;34.834;2023-05-10T08:52:15;100675.59;;;25.63;50.70
75936;BME280;64614;32.062;34.834;2023-05-10T08:54:42;100677.22;;;25.64;50.79
75936;BME280;64614;32.062;34.834;2023-05-10T08:57:08;100667.84;;;25.65;50.90
75936;BME280;64614;32.062;34.834;2023-05-10T08:59:33;100666.22;;;25.64;50.70
75936;BME280;64614;32.062;34.834;2023-05-10T09:02:00;100656.03;;;25.65;50.84
75936;BME280;64614;32.062;34.834;2023-05-10T09:04:27;100670.59;;;25.65;50.96
75936;BME280;64614;32.062;34.834;2023-05-10T09:06:54;100662.00;;;25.67;50.44
75936;BME280;64614;32.062;34.834;2023-05-10T09:09:20;100659.94;;;25.64;50.67
75936;BME280;64614;32.062;34.834;2023-05-10T09:11:47;100663.13;;;25.66;50.73
75936;BME280;64614;32.062;34.834;2023-05-10T09:14:13;100663.94;;;25.67;50.95
75936;BME280;64614;32.062;34.834;2023-05-10T09:16:39;100660.06;;;25.68;50.90
75936;BME280;64614;32.062;34.834;2023-05-10T09:19:05;100667.19;;;25.69;50.89
75936;BME280;64614;32.062;34.834;2023-05-10T09:21:32;100667.19;;;25.69;50.88
75936;BME280;64614;32.062;34.834;2023-05-10T09:24:03;100663.25;;;25.70;50.75
75936;BME280;64614;32.062;34.834;2023-05-10T09:26:29;100663.25;;;25.70;50.44
75936;BME280;64614;32.062;34.834;2023-05-10T09:28:57;100665.22;;;25.69;50.49
75936;BME280;64614;32.062;34.834;2023-05-10T09:31:23;100663.25;;;25.70;50.54
75936;BME280;64614;32.062;34.834;2023-05-10T09:33:51;100671.19;;;25.71;50.82
75936;BME280;64614;32.062;34.834;2023-05-10T09:36:17;100662.13;;;25.71;50.59
75936;BME280;64614;32.062;34.834;2023-05-10T09:38:50;100664.88;;;25.71;50.53
75936;BME280;64614;32.062;34.834;2023-05-10T09:41:21;100651.13;;;25.71;50.42
75936;BME280;64614;32.062;34.834;2023-05-10T09:43:47;100649.19;;;25.71;50.26
75936;BME280;64614;32.062;34.834;2023-05-10T09:46:14;100637.38;;;25.71;50.43
75936;BME280;64614;32.062;34.834;2023-05-10T09:48:43;100642.88;;;25.71;50.30
75936;BME280;64614;32.062;34.834;2023-05-10T09:51:09;100644.50;;;25.72;50.60
75936;BME280;64614;32.062;34.834;2023-05-10T09:53:34;100650.00;;;25.72;50.66
75936;BME280;64614;32.062;34.834;2023-05-10T09:56:00;100636.25;;;25.72;50.17
75936;BME280;64614;32.062;34.834;2023-05-10T09:58:26;100633.50;;;25.72;50.40
75936;BME280;64614;32.062;34.834;2023-05-10T10:00:52;100631.09;;;25.70;50.28
75936;BME280;64614;32.062;34.834;2023-05-10T10:03:21;100643.34;;;25.73;50.24
75936;BME280;64614;32.062;34.834;2023-05-10T10:05:48;100633.16;;;25.73;50.21
75936;BME280;64614;32.062;34.834;2023-05-10T10:08:15;100628.34;;;25.70;50.37
75936;BME280;64614;32.062;34.834;2023-05-10T10:10:42;100627.69;;;25.73;50.32
75936;BME280;64614;32.062;34.834;2023-05-10T10:13:10;100629.72;;;25.76;49.90
75936;BME280;64614;32.062;34.834;2023-05-10T10:15:36;100629.25;;;25.74;49.96
75936;BME280;64614;32.062;34.834;2023-05-10T10:18:03;100621.22;;;25.69;49.76
75936;BME280;64614;32.062;34.834;2023-05-10T10:20:29;100622.47;;;25.72;49.75
75936;BME280;64614;32.062;34.834;2023-05-10T10:22:55;100616.06;;;25.68;49.53
75936;BME280;64614;32.062;34.834;2023-05-10T10:25:21;100617.66;;;25.69;49.81
75936;BME280;64614;32.062;34.834;2023-05-10T10:30:24;100619.41;;;25.73;49.83
75936;BME280;64614;32.062;34.834;2023-05-10T10:35:23;100616.31;;;25.75;49.64
75936;BME280;64614;32.062;34.834;2023-05-10T10:37:50;100617.94;;;25.76;49.54
75936;BME280;64614;32.062;34.834;2023-05-10T10:40:24;100614.06;;;25.77;49.85
75936;BME280;64614;32.062;34.834;2023-05-10T10:42:51;100612.44;;;25.76;49.63
75936;BME280;64614;32.062;34.834;2023-05-10T10:45:17;100611.31;;;25.77;50.20
75936;BME280;64614;32.062;34.834;2023-05-10T10:47:44;100607.88;;;25.80;49.99
75936;BME280;64614;32.062;34.834;2023-05-10T10:50:10;100601.69;;;25.83;49.70
75936;BME280;64614;32.062;34.834;2023-05-10T10:52:42;100604.94;;;25.85;49.94
75936;BME280;64614;32.062;34.834;2023-05-10T10:55:13;100597.81;;;25.84;50.08
75936;BME280;64614;32.062;34.834;2023-05-10T11:02:50;100604.72;;;25.90;49.29
75936;BME280;64614;32.062;34.834;2023-05-10T11:05:39;100604.38;;;25.92;49.82
75936;BME280;64614;32.062;34.834;2023-05-10T11:10:40;100583.97;;;25.93;49.57
75936;BME280;64614;32.062;34.834;2023-05-10T11:13:08;100578.28;;;25.98;49.45
75936;BME280;64614;32.062;34.834;2023-05-10T11:15:40;100585.72;;;25.97;49.64
75936;BME280;64614;32.062;34.834;2023-05-10T11:18:21;100582.97;;;25.97;49.50
75936;BME280;64614;32.062;34.834;2023-05-10T11:20:52;100592.34;;;25.96;49.64
75936;BME280;64614;32.062;34.834;2023-05-10T11:23:22;100580.91;;;25.94;50.03
75936;BME280;64614;32.062;34.834;2023-05-10T11:25:48;100581.81;;;25.99;50.02
75936;BME280;64614;32.062;34.834;2023-05-10T11:28:17;100579.06;;;25.99;49.61
75936;BME280;64614;32.062;34.834;2023-05-10T11:30:44;100569.69;;;26.00;49.81
75936;BME280;64614;32.062;34.834;2023-05-10T11:33:16;100565.00;;;26.00;49.44
75936;BME280;64614;32.062;34.834;2023-05-10T11:35:42;100562.25;;;26.00;49.53
75936;BME280;64614;32.062;34.834;2023-05-10T11:38:09;100562.69;;;26.02;49.57
75936;BME280;64614;32.062;34.834;2023-05-10T11:40:37;100554.91;;;26.04;49.52
75936;BME280;64614;32.062;34.834;2023-05-10T11:43:03;100558.13;;;26.06;49.88
75936;BME280;64614;32.062;34.834;2023-05-10T11:45:32;100549.53;;;26.08;49.82
75936;BME280;64614;32.062;34.834;2023-05-10T11:47:58;100554.41;;;26.11;49.89
75936;BME280;64614;32.062;34.834;2023-05-10T11:50:25;100547.53;;;26.17;49.71
75936;BME280;64614;32.062;34.834;2023-05-10T11:52:54;100549.63;;;26.20;49.66
75936;BME280;64614;32.062;34.834;2023-05-10T11:55:22;100551.22;;;26.21;49.99
75936;BME280;64614;32.062;34.834;2023-05-10T11:57:53;100552.50;;;26.24;49.87
75936;BME280;64614;32.062;34.834;2023-05-10T12:00:19;100549.75;;;26.24;49.59
75936;BME280;64614;32.062;34.834;2023-05-10T12:02:45;100543.41;;;26.23;49.83
75936;BME280;64614;32.062;34.834;2023-05-10T12:05:11;100553.28;;;26.24;49.63
75936;BME280;64614;32.062;34.834;2023-05-10T12:07:37;100536.75;;;26.24;49.91
75936;BME280;64614;32.062;34.834;2023-05-10T12:10:06;100536.75;;;26.24;49.86
75936;BME280;64614;32.062;34.834;2023-05-10T12:12:44;100531.25;;;26.24;50.10
75936;BME280;64614;32.062;34.834;2023-05-10T12:15:21;100538.72;;;26.24;49.90
75936;BME280;64614;32.062;34.834;2023-05-10T12:17:47;100526.09;;;26.23;49.90
75936;BME280;64614;32.062;34.834;2023-05-10T12:20:23;100524.13;;;26.23;49.56
75936;BME280;64614;32.062;34.834;2023-05-10T12:22:56;100508.09;;;26.25;50.00
75936;BME280;64614;32.062;34.834;2023-05-10T12:25:24;100503.72;;;26.24;49.97
75936;BME280;64614;32.062;34.834;2023-05-10T12:27:57;100506.47;;;26.24;50.11
75936;BME280;64614;32.062;34.834;2023-05-10T12:30:23;100493.53;;;26.25;49.64
75936;BME280;64614;32.062;34.834;2023-05-10T12:32:50;100497.09;;;26.25;49.59
75936;BME280;64614;32.062;34.834;2023-05-10T12:35:15;100495.47;;;26.24;49.89
75936;BME280;64614;32.062;34.834;2023-05-10T12:37:44;100497.09;;;26.25;49.99
75936;BME280;64614;32.062;34.834;2023-05-10T12:40:10;100493.19;;;26.26;49.95
75936;BME280;64614;32.062;34.834;2023-05-10T12:42:37;100491.56;;;26.25;49.46
75936;BME280;64614;32.062;34.834;2023-05-10T12:45:04;100490.78;;;26.25;49.90
75936;BME280;64614;32.062;34.834;2023-05-10T12:47:31;100482.53;;;26.25;49.80
75936;BME280;64614;32.062;34.834;2023-05-10T12:49:57;100495.16;;;26.26;49.72
75936;BME280;64614;32.062;34.834;2023-05-10T12:52:23;100487.22;;;26.24;50.06
75936;BME280;64614;32.062;34.834;2023-05-10T12:54:49;100482.84;;;26.23;49.83
75936;BME280;64614;32.062;34.834;2023-05-10T12:57:14;100485.28;;;26.25;49.65
75936;BME280;64614;32.062;34.834;2023-05-10T12:59:40;100481.38;;;26.26;49.94
75936;BME280;64614;32.062;34.834;2023-05-10T13:02:06;100486.06;;;26.25;49.71
75936;BME280;64614;32.062;34.834;2023-05-10T13:04:32;100478.16;;;26.24;49.68
75936;BME280;64614;32.062;34.834;2023-05-10T13:06:58;100463.59;;;26.23;49.91
75936;BME280;64614;32.062;34.834;2023-05-10T13:09:27;100477.34;;;26.23;49.98
75936;BME280;64614;32.062;34.834;2023-05-10T13:11:54;100472.19;;;26.22;49.93